Virtual Futura



 METAR AND TAF INFORMATION
METAR FOR GCLA
ADDS - METARS form results

(1107 UTC 18 October 2019)
Data provider http://aviationweather.gov/metar/data/
 
METAR text: GCLA 181100Z 05005KT 010V090 9999 FEW035 BKN042 24/15 Q1022
Conditions at: GCLA (LA PALMA AIRPORT, ES) observed 1100 UTC 18 October 2019
Temperature: 24.0°C (75°F)
Dewpoint: 15.0°C (59°F) [RH = 57%]
Pressure (altimeter): 30.18 inches Hg (1022.0 mb)
Winds: from the NE (50 degrees) at 6 MPH (5 knots; 2.6 m/s)
Visibility: 6 or more miles (10+ km)
Ceiling: 4200 feet AGL
Clouds: few clouds at 3500 feet AGL
broken clouds at 4200 feet AGL
Weather: no significant weather observed at this time

METAR text: GCLA 181030Z 03008KT 9999 SCT034 BKN040 23/15 Q1022
Conditions at: GCLA (LA PALMA AIRPORT, ES) observed 1030 UTC 18 October 2019
Temperature: 23.0°C (73°F)
Dewpoint: 15.0°C (59°F) [RH = 61%]
Pressure (altimeter): 30.18 inches Hg (1022.0 mb)
Winds: from the NNE (30 degrees) at 9 MPH (8 knots; 4.1 m/s)
Visibility: 6 or more miles (10+ km)
Ceiling: 4000 feet AGL
Clouds: scattered clouds at 3400 feet AGL
broken clouds at 4000 feet AGL
Weather: no significant weather observed at this time

Forecast for: GCLA (LA PALMA AIRPORT, ES)
Text: TAF GCLA 180800Z 1809/1909 02008KT 9999 SCT030 TX26/1814Z TN20/1905Z
Forecast period: 0900 to 1800 UTC 18 October 2019
Forecast type: FROM: standard forecast or significant change
Winds: from the NNE (20 degrees) at 9 MPH (8 knots; 4.1 m/s)
Visibility: 6 or more miles 10+ km)
Ceiling: at least 12,000 feet AGL
Clouds: scattered clouds at 3000 feet AGL
Weather: no significant weather forecast for this period
Text: BECMG 1818/1820 31010KT
Forecast period: 1800 UTC 18 October 2019 to 0900 UTC 19 October 2019
Forecast type: BECOMING: Conditions expected to become as follows by 2000 UTC 18 October 2019
Winds: from the NW (310 degrees) at 12 MPH (10 knots; 5.1 m/s)
Visibility: 6 or more miles 10+ km)
Ceiling: at least 12,000 feet AGL
Clouds: scattered clouds at 3000 feet AGL
Weather: no significant weather forecast for this period

 AIRPORT MAP

 RUNWAY INFORMATION
Runway 01 Runway length 7218 ft Runway width 148 ft
Runway elevation 103 ft Runway displaced threshold 0 ft Runway heading 359
Runway 19 Runway length 7218 ft Runway width 148 ft
Runway elevation 65 ft Runway displaced threshold 0 ft Runway heading 179

 AIRPORT FREQUENCIES
Type APP Name CANARIAS A Frequency 126.1 MHZ
Type ATIS Name INFO Frequency 118.6 MHZ
Type GND Name GND Frequency 121.8 MHZ
Type TWR Name TWR Frequency 118.9 MHZ

 AIRPORT NEAR NAVIGATION AIDS
Type DME Name La Palma Frequency 112400 KHZ
Type NDB Name La Palma Frequency 389 KHZ

Poltica de Cookies

Esta web utiliza cookies para obtener datos estadsticos de la navegacin de sus usuarios. Si continas navegando consideramos que aceptas su uso. Ms informacin X Cerrar